Time;durP1;ratioP1;P1;durP2;ratioP2;P2;SDS_P1;SDS_P2;PMS_P1;PMS_P2;Temp;Humidity;BMP_temperature;BMP_pressure;BME280_temperature;BME280_humidity;BME280_pressure;Samples;Min_cycle;Max_cycle;Signal;HPM_P1;HPM_P2
2023/07/27 00:00:02;;;;;;;7.72;7.05;;;;;;;22.38;57.08;94259.25;6129293;23;20494;-66
2023/07/27 00:02:28;;;;;;;8.20;7.53;;;;;;;22.34;57.34;94248.91;6128733;23;20192;-66
2023/07/27 00:04:55;;;;;;;7.47;6.88;;;;;;;22.33;57.71;94258.59;6128447;23;20176;-66
2023/07/27 00:07:22;;;;;;;7.13;6.63;;;;;;;22.36;57.76;94265.31;6139076;23;20168;-67
2023/07/27 00:09:50;;;;;;;6.78;6.28;;;;;;;22.36;57.48;94262.50;6129769;23;20161;-66
2023/07/27 00:12:17;;;;;;;6.75;6.28;;;;;;;22.29;56.88;94262.72;6128631;23;20168;-68
2023/07/27 00:14:43;;;;;;;6.38;5.82;;;;;;;22.17;56.68;94264.28;6129223;23;20221;-68
2023/07/27 00:17:10;;;;;;;5.28;4.82;;;;;;;22.07;55.92;94271.75;6129687;23;20160;-67
2023/07/27 00:19:37;;;;;;;6.28;4.88;;;;;;;21.99;55.47;94261.97;6127829;23;20202;-67
2023/07/27 00:22:04;;;;;;;6.05;5.10;;;;;;;21.99;55.35;94249.97;6129552;23;20164;-67
2023/07/27 00:25:08;;;;;;;5.25;4.85;;;;;;;21.96;55.49;94253.66;6128400;23;20172;-67
2023/07/27 00:28:12;;;;;;;5.18;4.68;;;;;;;21.91;55.08;94260.63;6129024;23;20170;-67
2023/07/27 00:31:16;;;;;;;4.03;3.72;;;;;;;21.86;55.06;94247.16;6139233;23;20182;-67
2023/07/27 00:34:20;;;;;;;4.07;3.78;;;;;;;21.81;55.16;94250.50;6127503;23;20175;-68
2023/07/27 00:37:26;;;;;;;4.53;3.63;;;;;;;21.69;55.10;94252.03;6139111;23;20226;-66
2023/07/27 00:40:30;;;;;;;4.00;3.70;;;;;;;21.63;55.33;94256.63;6128667;23;20191;-67
2023/07/27 00:43:34;;;;;;;4.05;3.63;;;;;;;21.58;55.75;94262.78;6103823;23;20190;-67
2023/07/27 00:46:40;;;;;;;4.13;3.83;;;;;;;21.49;55.39;94260.59;6127532;23;20214;-67
2023/07/27 00:49:43;;;;;;;4.00;3.50;;;;;;;21.42;55.46;94254.41;6128174;23;20175;-67
2023/07/27 00:52:52;;;;;;;4.20;3.85;;;;;;;21.33;55.63;94249.41;6128254;23;20172;-66
2023/07/27 00:55:57;;;;;;;3.65;3.28;;;;;;;21.29;54.94;94252.31;6127913;23;20176;-69
2023/07/27 00:59:05;;;;;;;3.08;2.83;;;;;;;21.28;55.27;94266.75;6129812;23;20172;-69
2023/07/27 01:02:14;;;;;;;3.38;2.70;;;;;;;21.19;54.69;94261.00;6128035;23;20179;-69
2023/07/27 01:05:18;;;;;;;2.85;2.65;;;;;;;21.14;54.70;94254.72;6138515;23;20601;-69
2023/07/27 01:08:26;;;;;;;4.43;2.90;;;;;;;21.09;54.58;94260.84;6129007;23;20174;-69
2023/07/27 01:11:31;;;;;;;2.50;2.40;;;;;;;21.10;54.66;94262.44;6129111;23;20156;-69
2023/07/27 01:14:36;;;;;;;3.00;2.70;;;;;;;21.04;55.21;94272.59;6129018;23;20164;-69
2023/07/27 01:17:42;;;;;;;2.78;2.53;;;;;;;21.02;54.78;94275.03;6128763;23;20565;-69
2023/07/27 01:20:47;;;;;;;2.45;2.25;;;;;;;21.01;54.75;94269.88;6128897;23;20248;-69
2023/07/27 01:23:51;;;;;;;2.30;2.20;;;;;;;20.94;54.73;94276.47;6127624;23;20190;-69
2023/07/27 01:26:47;;;;;;;2.45;2.35;;;;;;;20.95;54.57;94280.03;6128327;23;20163;-69
2023/07/27 01:29:31;;;;;;;2.50;2.30;;;;;;;20.87;54.49;94274.63;6050062;23;20447;-69
2023/07/27 01:32:02;;;;;;;2.70;2.50;;;;;;;20.83;54.74;94282.31;6128265;23;20175;-69
2023/07/27 01:34:36;;;;;;;2.30;2.20;;;;;;;20.78;54.97;94282.09;6128993;23;20164;-69
2023/07/27 01:37:05;;;;;;;2.38;2.28;;;;;;;20.70;54.54;94287.06;6138217;23;20659;-69
2023/07/27 01:39:36;;;;;;;2.40;2.30;;;;;;;20.74;55.05;94287.00;6127560;23;20199;-69
2023/07/27 01:42:08;;;;;;;2.50;2.40;;;;;;;20.79;54.75;94283.66;6128818;23;20172;-69
2023/07/27 01:44:37;;;;;;;2.40;2.20;;;;;;;20.84;55.05;94289.53;6138381;23;20504;-69
2023/07/27 01:47:06;;;;;;;3.55;2.35;;;;;;;20.81;55.01;94289.63;6127640;23;20175;-69
2023/07/27 01:49:35;;;;;;;2.33;2.20;;;;;;;20.81;55.20;94295.22;6127697;23;20171;-69
2023/07/27 01:52:03;;;;;;;2.50;2.40;;;;;;;20.85;54.96;94287.50;6138858;23;20183;-69
2023/07/27 01:54:30;;;;;;;2.88;2.67;;;;;;;20.80;54.87;94288.03;6138320;23;20461;-69
2023/07/27 01:56:58;;;;;;;2.90;2.70;;;;;;;20.80;55.43;94293.63;6127760;23;20188;-69
2023/07/27 01:59:30;;;;;;;2.92;2.72;;;;;;;20.75;55.23;94297.75;6127831;23;20219;-69
2023/07/27 02:01:58;;;;;;;3.03;2.83;;;;;;;20.66;55.39;94301.19;6127582;23;20186;-70
2023/07/27 02:04:28;;;;;;;3.08;2.88;;;;;;;20.59;55.54;94311.75;6128194;23;20175;-69
2023/07/27 02:06:57;;;;;;;3.30;3.10;;;;;;;20.60;55.86;94313.34;6127554;23;20198;-69
2023/07/27 02:09:25;;;;;;;3.42;3.20;;;;;;;20.61;55.74;94318.47;6127043;23;20458;-69
2023/07/27 02:12:00;;;;;;;3.70;3.40;;;;;;;20.60;55.98;94330.13;6128397;23;20569;-69
2023/07/27 02:14:35;;;;;;;3.58;3.28;;;;;;;20.60;55.22;94325.31;6138086;23;20320;-69
2023/07/27 02:17:07;;;;;;;3.55;3.25;;;;;;;20.59;55.89;94322.97;6127458;23;20183;-69
2023/07/27 02:19:41;;;;;;;4.05;3.70;;;;;;;20.59;55.72;94332.16;6138083;23;20494;-69
2023/07/27 02:22:17;;;;;;;4.30;4.00;;;;;;;20.56;56.17;94349.84;6128540;23;20182;-69
2023/07/27 02:24:44;;;;;;;4.95;4.50;;;;;;;20.48;55.97;94340.00;6127692;23;20178;-69
2023/07/27 02:27:13;;;;;;;4.65;4.35;;;;;;;20.44;56.38;94339.25;6128599;23;20171;-69
2023/07/27 02:29:42;;;;;;;4.32;4.13;;;;;;;20.43;56.13;94332.09;6127077;23;20183;-68
2023/07/27 02:32:12;;;;;;;5.13;4.82;;;;;;;20.42;56.17;94339.69;6138352;23;20179;-68
2023/07/27 02:34:40;;;;;;;5.22;4.82;;;;;;;20.46;56.24;94347.25;6128279;23;20457;-68
2023/07/27 02:37:07;;;;;;;4.95;4.65;;;;;;;20.38;56.04;94357.81;6128109;23;20468;-68
2023/07/27 02:39:36;;;;;;;4.93;4.53;;;;;;;20.39;56.28;94354.56;6127222;23;20195;-68
2023/07/27 02:42:03;;;;;;;4.93;4.63;;;;;;;20.42;55.68;94359.31;6127165;23;20172;-68
2023/07/27 02:44:31;;;;;;;5.18;4.88;;;;;;;20.41;55.69;94362.56;6127402;23;20176;-68
2023/07/27 02:46:59;;;;;;;5.40;5.00;;;;;;;20.41;55.86;94360.53;6127455;23;20184;-68
2023/07/27 02:49:28;;;;;;;5.20;4.82;;;;;;;20.39;55.58;94364.97;6127370;23;20172;-68
2023/07/27 02:51:59;;;;;;;4.95;4.65;;;;;;;20.42;55.30;94364.91;6138129;23;20171;-69
2023/07/27 02:54:25;;;;;;;5.03;4.72;;;;;;;20.41;55.35;94362.56;6128120;23;20477;-69
2023/07/27 02:56:53;;;;;;;5.28;4.97;;;;;;;20.39;55.19;94387.38;6128162;23;20186;-69
2023/07/27 02:59:21;;;;;;;5.43;5.05;;;;;;;20.35;55.19;94381.88;6128590;23;20187;-69
2023/07/27 03:01:48;;;;;;;5.38;4.97;;;;;;;20.28;55.10;94379.22;6128916;23;20182;-70
2023/07/27 03:04:15;;;;;;;5.95;5.45;;;;;;;20.30;54.84;94381.56;6129413;23;20230;-68
2023/07/27 03:06:43;;;;;;;5.50;5.10;;;;;;;20.29;54.48;94380.78;6129154;23;20168;-67
2023/07/27 03:09:11;;;;;;;6.32;5.93;;;;;;;20.33;54.20;94394.72;6129864;23;20184;-67
2023/07/27 03:11:38;;;;;;;5.80;5.50;;;;;;;20.28;54.44;94412.81;6129158;23;20164;-67
2023/07/27 03:14:05;;;;;;;5.70;5.30;;;;;;;20.19;54.72;94404.22;6129296;23;20168;-67
2023/07/27 03:16:32;;;;;;;5.85;5.43;;;;;;;20.14;54.23;94418.69;6129485;23;20175;-67
2023/07/27 03:18:59;;;;;;;5.45;5.15;;;;;;;20.09;54.25;94414.41;6130171;23;20156;-67
2023/07/27 03:21:26;;;;;;;5.22;4.93;;;;;;;20.00;53.64;94410.59;6130304;23;20194;-67
2023/07/27 03:23:53;;;;;;;5.55;5.15;;;;;;;19.98;53.40;94413.03;6128604;23;20589;-67
2023/07/27 03:26:21;;;;;;;5.22;4.93;;;;;;;19.88;53.08;94421.19;6129057;23;20178;-67
2023/07/27 03:28:50;;;;;;;5.20;4.88;;;;;;;19.86;52.96;94408.84;6128665;23;20529;-68
2023/07/27 03:31:18;;;;;;;5.07;4.78;;;;;;;19.88;53.41;94409.22;6130093;23;20160;-68
2023/07/27 03:33:45;;;;;;;5.20;4.90;;;;;;;19.82;52.93;94410.94;6130167;23;20163;-68
2023/07/27 03:36:12;;;;;;;5.03;4.72;;;;;;;19.85;52.98;94415.66;6130151;23;20160;-67
2023/07/27 03:38:38;;;;;;;5.15;4.75;;;;;;;19.86;53.10;94417.25;6129863;23;20164;-68
2023/07/27 03:41:05;;;;;;;4.68;4.38;;;;;;;19.80;52.80;94416.19;6128677;23;20192;-67
2023/07/27 03:43:33;;;;;;;4.78;4.47;;;;;;;19.79;52.99;94417.38;6128817;23;20179;-67
2023/07/27 03:46:00;;;;;;;4.70;4.40;;;;;;;19.79;52.66;94429.38;6128601;23;20635;-67
2023/07/27 03:48:27;;;;;;;4.63;4.32;;;;;;;19.73;52.71;94439.47;6129847;23;20230;-69
2023/07/27 03:50:54;;;;;;;4.60;4.30;;;;;;;19.69;52.60;94436.75;6128693;23;20235;-67
2023/07/27 03:53:20;;;;;;;4.80;4.50;;;;;;;19.75;52.83;94436.25;6128934;23;20168;-67
2023/07/27 03:55:47;;;;;;;5.30;4.90;;;;;;;19.75;53.03;94445.41;6128717;23;20180;-66
2023/07/27 03:58:14;;;;;;;4.95;4.65;;;;;;;19.76;52.94;94449.03;6129374;23;20588;-66
2023/07/27 04:00:42;;;;;;;5.10;4.70;;;;;;;19.60;51.93;94460.84;6128470;23;20199;-66
2023/07/27 04:03:10;;;;;;;4.80;4.40;;;;;;;19.49;51.51;94470.19;6128544;23;20168;-66
2023/07/27 04:05:37;;;;;;;4.20;3.90;;;;;;;19.44;50.75;94462.31;6129864;23;20160;-66
2023/07/27 04:21:37;;;;;;;3.70;2.90;;;;;;;19.17;50.17;94490.31;5112692;27;20552;-65
2023/07/27 04:24:06;;;;;;;2.72;2.63;;;;;;;19.15;49.95;94497.53;5113177;28;20259;-65
2023/07/27 04:26:37;;;;;;;2.95;2.75;;;;;;;19.08;49.18;94511.59;5112790;28;20192;-65
2023/07/27 04:29:06;;;;;;;2.65;2.53;;;;;;;18.89;49.65;94513.06;5113021;28;20521;-65
2023/07/27 04:31:34;;;;;;;2.80;2.63;;;;;;;18.81;49.61;94512.38;5112607;28;20180;-65
2023/07/27 04:34:02;;;;;;;2.67;2.50;;;;;;;18.90;49.74;94521.03;5146476;27;20195;-65
2023/07/27 04:36:30;;;;;;;2.80;2.70;;;;;;;18.88;49.34;94531.03;5112112;28;20191;-65
2023/07/27 04:39:02;;;;;;;3.15;2.90;;;;;;;18.85;49.42;94543.84;5112537;28;20257;-66
2023/07/27 04:41:32;;;;;;;3.22;2.67;;;;;;;18.83;49.60;94549.06;5112663;28;20204;-66
2023/07/27 04:44:02;;;;;;;2.72;2.53;;;;;;;18.82;49.50;94553.06;5112574;28;20233;-67
2023/07/27 04:46:30;;;;;;;3.65;3.30;;;;;;;18.87;49.28;94555.38;5146516;27;20191;-69
2023/07/27 04:48:58;;;;;;;5.20;3.08;;;;;;;18.91;49.38;94553.34;5146060;27;20200;-67
2023/07/27 04:52:03;;;;;;;3.10;2.85;;;;;;;18.95;49.12;94554.09;5111629;28;20248;-67
2023/07/27 04:55:08;;;;;;;3.20;3.00;;;;;;;18.92;48.82;94552.16;5111705;28;20199;-67
2023/07/27 04:58:18;;;;;;;2.65;2.45;;;;;;;18.82;49.19;94553.06;5112386;28;20184;-67
2023/07/27 05:01:26;;;;;;;3.10;2.65;;;;;;;18.77;49.41;94556.31;5112310;28;20216;-67
2023/07/27 05:04:34;;;;;;;2.92;2.70;;;;;;;18.71;49.27;94550.41;5112025;28;20519;-67
2023/07/27 05:07:39;;;;;;;3.00;2.80;;;;;;;18.61;49.68;94550.50;5112280;28;20202;-67
2023/07/27 05:10:45;;;;;;;3.05;2.85;;;;;;;18.47;49.68;94562.63;5111805;28;20191;-67
2023/07/27 05:13:51;;;;;;;3.15;2.95;;;;;;;18.24;50.16;94557.69;5112142;28;20227;-67
2023/07/27 05:16:56;;;;;;;3.53;2.90;;;;;;;18.39;49.93;94570.28;5112117;28;20245;-67
2023/07/27 05:20:05;;;;;;;3.17;2.90;;;;;;;18.44;49.46;94557.88;5111379;28;20196;-67
2023/07/27 05:23:10;;;;;;;3.13;2.90;;;;;;;18.38;49.94;94559.56;5111715;28;20504;-67
2023/07/27 05:26:19;;;;;;;3.95;3.17;;;;;;;18.37;50.05;94569.91;5110649;28;20592;-68
2023/07/27 05:29:24;;;;;;;3.30;3.03;;;;;;;18.33;50.40;94576.75;5110942;28;20202;-67
2023/07/27 05:32:30;;;;;;;2.97;2.80;;;;;;;18.39;50.25;94578.66;5104257;28;20592;-68
2023/07/27 05:35:35;;;;;;;3.35;3.13;;;;;;;18.42;50.57;94582.63;5098241;28;20202;-67
2023/07/27 05:38:41;;;;;;;3.65;3.35;;;;;;;18.49;50.13;94593.72;5098103;28;20181;-67
2023/07/27 05:41:48;;;;;;;3.50;3.20;;;;;;;18.55;50.26;94589.25;5098119;28;20266;-67
2023/07/27 05:44:54;;;;;;;3.92;3.63;;;;;;;18.65;50.68;94585.56;5097427;28;20203;-67
2023/07/27 05:48:00;;;;;;;3.90;3.60;;;;;;;18.64;50.95;94586.00;5097054;28;20193;-67
2023/07/27 05:50:32;;;;;;;4.00;3.58;;;;;;;18.69;50.67;94605.06;5097134;28;20207;-67
2023/07/27 05:53:01;;;;;;;3.90;3.60;;;;;;;18.66;50.55;94603.09;5096980;28;20533;-67
2023/07/27 05:55:31;;;;;;;3.60;3.30;;;;;;;18.66;50.63;94603.88;5097755;28;20246;-67
2023/07/27 05:57:59;;;;;;;3.30;3.10;;;;;;;18.52;49.73;94616.03;5131191;27;20527;-66
2023/07/27 06:00:30;;;;;;;4.30;3.20;;;;;;;18.45;49.75;94607.72;5097674;28;20223;-66
2023/07/27 06:02:58;;;;;;;3.00;2.80;;;;;;;18.43;49.62;94612.13;5096817;28;20204;-66
2023/07/27 06:05:26;;;;;;;3.20;3.00;;;;;;;18.35;49.17;94617.00;5096382;28;20275;-66
2023/07/27 06:07:56;;;;;;;2.90;2.70;;;;;;;18.36;49.34;94604.63;5097153;28;20192;-65
2023/07/27 06:10:24;;;;;;;3.10;2.80;;;;;;;18.36;48.72;94612.22;5096714;28;20196;-65
2023/07/27 06:12:53;;;;;;;4.63;3.00;;;;;;;18.40;48.42;94608.16;5097466;28;20250;-66
2023/07/27 06:15:28;;;;;;;2.85;2.65;;;;;;;18.42;48.23;94608.56;5097078;28;20248;-65
2023/07/27 06:17:55;;;;;;;2.65;2.47;;;;;;;18.45;47.83;94604.94;5130697;27;20195;-66
2023/07/27 06:20:26;;;;;;;2.60;2.50;;;;;;;18.47;47.91;94594.13;5095955;28;20239;-65
2023/07/27 06:22:54;;;;;;;2.45;2.35;;;;;;;18.58;47.38;94593.22;5097277;28;20189;-66
2023/07/27 06:25:27;;;;;;;2.80;2.60;;;;;;;18.63;47.21;94595.59;5097188;28;20180;-67
2023/07/27 06:27:55;;;;;;;2.75;2.60;;;;;;;18.66;46.28;94592.72;5097175;28;20212;-66
2023/07/27 06:30:31;;;;;;;2.97;2.70;;;;;;;18.73;45.83;94595.47;5096385;28;20199;-68
2023/07/27 06:32:59;;;;;;;2.50;2.30;;;;;;;18.82;45.46;94605.38;5096805;28;20679;-65
2023/07/27 06:35:29;;;;;;;2.83;2.63;;;;;;;18.92;46.35;94607.25;5096042;28;20211;-66
2023/07/27 06:37:58;;;;;;;2.58;2.47;;;;;;;18.95;45.15;94596.03;5130279;27;20232;-66
2023/07/27 06:40:31;;;;;;;2.70;2.50;;;;;;;19.01;44.29;94604.72;5096896;28;20218;-66
2023/07/27 06:43:00;;;;;;;2.25;2.15;;;;;;;19.08;44.63;94606.63;5128974;27;20624;-66
2023/07/27 06:45:30;;;;;;;3.53;2.40;;;;;;;19.23;44.79;94594.03;5096737;28;20208;-66
2023/07/27 06:47:58;;;;;;;3.00;2.80;;;;;;;19.31;44.44;94587.13;5095570;28;20246;-65
2023/07/27 06:50:29;;;;;;;2.78;2.60;;;;;;;19.40;44.92;94583.84;5130038;27;20188;-65
2023/07/27 06:52:56;;;;;;;2.40;2.30;;;;;;;19.43;43.60;94583.00;5095785;28;20217;-65
2023/07/27 06:55:28;;;;;;;2.60;2.42;;;;;;;19.45;43.65;94586.16;5095348;28;20196;-65
2023/07/27 06:57:57;;;;;;;2.88;2.60;;;;;;;19.50;43.89;94580.09;5096554;28;20196;-65
2023/07/27 07:00:24;;;;;;;2.63;2.30;;;;;;;19.54;43.55;94572.44;5095487;28;20310;-65
2023/07/27 07:02:51;;;;;;;2.83;2.05;;;;;;;19.60;43.54;94570.72;5095621;28;20230;-65
2023/07/27 07:05:22;;;;;;;2.20;2.10;;;;;;;19.64;42.72;94576.28;5096135;28;20185;-65
2023/07/27 07:07:50;;;;;;;2.30;2.20;;;;;;;19.66;42.98;94565.47;5096034;28;20636;-65
2023/07/27 07:10:19;;;;;;;2.60;2.00;;;;;;;19.68;43.21;94572.25;5130022;27;20199;-65
2023/07/27 07:12:49;;;;;;;2.20;2.00;;;;;;;19.71;43.46;94576.19;5096199;28;20232;-65
2023/07/27 07:15:21;;;;;;;2.88;2.30;;;;;;;19.76;43.21;94563.75;5129448;27;20249;-65
2023/07/27 07:17:50;;;;;;;3.42;2.50;;;;;;;19.76;42.95;94566.53;5096225;28;20216;-65
2023/07/27 07:20:19;;;;;;;2.33;2.13;;;;;;;19.67;42.26;94578.25;5095270;28;20250;-65
2023/07/27 07:22:46;;;;;;;2.50;2.30;;;;;;;19.62;42.55;94571.13;5095270;28;20262;-65
2023/07/27 07:25:14;;;;;;;2.40;2.20;;;;;;;19.77;43.85;94568.91;5129244;27;20205;-65
2023/07/27 07:27:42;;;;;;;2.35;2.15;;;;;;;20.14;43.94;94570.66;5095124;28;20220;-65
2023/07/27 07:30:14;;;;;;;3.50;2.15;;;;;;;20.24;43.48;94566.09;5095624;28;20529;-65
2023/07/27 07:32:44;;;;;;;2.10;2.00;;;;;;;20.31;42.05;94570.78;5095128;28;20294;-65
2023/07/27 07:35:12;;;;;;;3.08;2.10;;;;;;;20.43;41.86;94576.53;5096018;28;20184;-65
2023/07/27 07:37:42;;;;;;;2.67;2.35;;;;;;;20.38;42.37;94567.84;5095486;28;20181;-65
2023/07/27 07:40:13;;;;;;;6.03;2.60;;;;;;;20.28;42.37;94563.25;5095402;28;20665;-65
2023/07/27 07:42:41;;;;;;;2.75;2.40;;;;;;;20.14;43.03;94570.66;5094609;28;20212;-65
2023/07/27 07:45:12;;;;;;;3.58;2.30;;;;;;;20.12;44.31;94564.72;5095661;28;20207;-65
2023/07/27 07:47:40;;;;;;;5.15;2.72;;;;;;;20.15;43.19;94555.47;5095723;28;20249;-65
2023/07/27 07:50:08;;;;;;;3.53;2.40;;;;;;;20.11;43.05;94570.72;5129541;27;20218;-65
2023/07/27 07:52:37;;;;;;;2.88;2.40;;;;;;;19.99;42.80;94565.75;5094970;28;20228;-65
2023/07/27 07:55:06;;;;;;;2.78;2.50;;;;;;;19.90;42.90;94571.91;5095146;28;20192;-65
2023/07/27 07:57:33;;;;;;;2.70;2.30;;;;;;;19.83;43.45;94569.22;5095307;28;20237;-65
2023/07/27 08:00:01;;;;;;;2.60;2.40;;;;;;;19.75;43.16;94571.31;5095730;28;20200;-65
2023/07/27 08:02:40;;;;;;;2.75;2.55;;;;;;;19.70;44.32;94581.00;5095501;28;20285;-65
2023/07/27 08:05:09;;;;;;;2.67;2.47;;;;;;;19.75;42.97;94562.94;5094334;28;20241;-65
2023/07/27 08:07:37;;;;;;;2.58;2.38;;;;;;;19.79;44.09;94576.84;5095406;28;20230;-65
2023/07/27 08:10:07;;;;;;;3.28;2.53;;;;;;;19.85;44.99;94584.34;5094738;28;20184;-65
2023/07/27 08:12:35;;;;;;;4.20;2.60;;;;;;;19.96;45.76;94579.38;5093880;28;20648;-65
2023/07/27 08:15:04;;;;;;;5.03;2.50;;;;;;;20.07;44.46;94576.38;5095349;28;20184;-65
2023/07/27 08:17:35;;;;;;;6.95;2.50;;;;;;;20.14;44.31;94579.06;5094317;28;20231;-65
2023/07/27 08:20:06;;;;;;;6.00;2.78;;;;;;;20.15;44.35;94579.84;5094022;28;20236;-65
2023/07/27 08:22:36;;;;;;;3.47;2.20;;;;;;;20.11;42.40;94574.31;5095196;28;20204;-65
2023/07/27 08:25:09;;;;;;;2.78;2.58;;;;;;;20.06;42.88;94591.59;5095138;28;20212;-65
2023/07/27 08:27:38;;;;;;;3.30;2.60;;;;;;;19.95;43.25;94588.19;5094298;28;20679;-65
2023/07/27 08:30:10;;;;;;;2.70;2.50;;;;;;;19.92;44.41;94586.25;5094523;28;20259;-65
2023/07/27 08:32:40;;;;;;;3.47;2.45;;;;;;;20.05;44.28;94583.66;5095214;28;20220;-65
2023/07/27 08:35:08;;;;;;;8.00;2.70;;;;;;;20.21;42.28;94592.16;5094857;28;20188;-65
2023/07/27 08:37:39;;;;;;;5.80;2.22;;;;;;;20.19;42.00;94592.59;5095070;28;20250;-65
2023/07/27 08:40:12;;;;;;;4.35;2.60;;;;;;;20.31;42.39;94601.59;5095157;28;20189;-65
2023/07/27 08:42:39;;;;;;;3.80;2.30;;;;;;;20.22;41.84;94596.53;5093805;28;20281;-65
2023/07/27 08:45:07;;;;;;;3.35;2.33;;;;;;;20.24;42.22;94601.72;5094262;28;20612;-65
2023/07/27 08:47:39;;;;;;;6.57;2.40;;;;;;;20.25;42.08;94592.09;5093938;28;20711;-66
2023/07/27 08:50:15;;;;;;;5.30;2.20;;;;;;;20.38;43.07;94596.66;5094336;28;20197;-65
2023/07/27 08:52:43;;;;;;;4.75;2.45;;;;;;;20.50;42.64;94600.84;5093723;28;20184;-65
2023/07/27 08:55:14;;;;;;;3.00;2.47;;;;;;;20.53;40.84;94616.81;5094980;28;20200;-65
2023/07/27 08:57:46;;;;;;;3.10;2.30;;;;;;;20.47;40.51;94609.28;5093733;28;20623;-65
2023/07/27 09:00:17;;;;;;;3.42;2.05;;;;;;;20.46;41.38;94607.72;5094677;28;20612;-65
2023/07/27 09:02:46;;;;;;;2.97;2.05;;;;;;;20.54;41.26;94609.97;5094939;28;20208;-65
2023/07/27 09:05:20;;;;;;;2.53;2.13;;;;;;;20.56;40.77;94604.75;5094921;28;20189;-65
2023/07/27 09:07:50;;;;;;;3.63;2.22;;;;;;;20.62;41.75;94597.41;5096515;28;20185;-65
2023/07/27 09:10:20;;;;;;;2.70;2.22;;;;;;;20.74;41.40;94600.84;5097972;28;20257;-65
2023/07/27 09:12:51;;;;;;;2.20;2.00;;;;;;;20.82;41.25;94596.66;5097823;28;20192;-65
2023/07/27 09:15:19;;;;;;;1.90;1.80;;;;;;;20.94;42.00;94584.78;5097385;28;20201;-65
2023/07/27 09:17:47;;;;;;;4.63;2.28;;;;;;;20.95;40.10;94594.00;5097419;28;20204;-65
2023/07/27 09:20:18;;;;;;;2.17;1.98;;;;;;;21.07;41.75;94607.38;5097576;28;20252;-65
2023/07/27 09:22:50;;;;;;;2.13;1.92;;;;;;;21.29;41.46;94613.31;5097826;28;20204;-65
2023/07/27 09:25:22;;;;;;;3.45;1.83;;;;;;;21.45;40.48;94615.41;5097647;28;20184;-65
2023/07/27 09:27:53;;;;;;;2.65;2.08;;;;;;;21.42;39.80;94617.06;5098112;28;20201;-65
2023/07/27 09:30:21;;;;;;;2.25;2.10;;;;;;;21.34;39.60;94621.25;5097567;28;20207;-65
2023/07/27 09:32:51;;;;;;;2.50;2.30;;;;;;;21.28;40.01;94611.72;5097096;28;20193;-65
2023/07/27 09:35:22;;;;;;;2.92;2.20;;;;;;;21.37;40.44;94618.34;5097350;28;20243;-65
2023/07/27 09:37:54;;;;;;;2.53;2.33;;;;;;;21.52;39.23;94595.59;5097705;28;20196;-65
2023/07/27 09:40:25;;;;;;;3.03;2.50;;;;;;;21.67;39.36;94610.09;5097094;28;20200;-65
2023/07/27 09:42:53;;;;;;;3.17;2.40;;;;;;;21.72;38.56;94604.78;5097327;28;20212;-65
2023/07/27 09:45:21;;;;;;;2.13;1.88;;;;;;;21.82;39.77;94595.31;5097018;28;20200;-65
2023/07/27 09:47:51;;;;;;;2.65;2.45;;;;;;;21.94;38.56;94623.91;5097047;28;20192;-65
2023/07/27 09:50:24;;;;;;;2.92;2.33;;;;;;;22.00;38.84;94614.50;5098039;28;20216;-65
2023/07/27 09:52:52;;;;;;;2.47;2.30;;;;;;;22.13;38.82;94619.44;5097906;28;20188;-65
2023/07/27 09:55:22;;;;;;;2.42;2.20;;;;;;;22.30;40.37;94615.44;5096985;28;20196;-64
2023/07/27 09:57:52;;;;;;;3.80;2.40;;;;;;;22.42;38.06;94616.75;5097761;28;20204;-64
2023/07/27 10:00:20;;;;;;;2.63;2.20;;;;;;;22.35;37.73;94629.72;5097721;28;20196;-65
2023/07/27 10:02:47;;;;;;;2.90;2.50;;;;;;;22.30;36.47;94619.03;5097812;28;20236;-64
2023/07/27 10:05:19;;;;;;;3.20;2.30;;;;;;;22.29;37.57;94619.47;5096944;28;20196;-67
2023/07/27 10:07:51;;;;;;;2.35;2.05;;;;;;;22.38;36.55;94624.47;5097611;28;20189;-68
2023/07/27 10:10:28;;;;;;;2.33;2.15;;;;;;;22.42;36.60;94623.16;5096706;28;20235;-66
2023/07/27 10:13:00;;;;;;;3.00;2.30;;;;;;;22.37;36.43;94618.06;5096901;28;20224;-65
2023/07/27 10:15:30;;;;;;;2.53;2.33;;;;;;;22.47;36.30;94619.78;5096454;28;20188;-64
2023/07/27 10:17:59;;;;;;;2.78;2.20;;;;;;;22.54;35.61;94607.56;5097298;28;20184;-64
2023/07/27 10:20:30;;;;;;;2.67;2.40;;;;;;;22.59;36.00;94598.63;5097191;28;20247;-65
2023/07/27 10:23:16;;;;;;;3.03;2.30;;;;;;;22.73;35.96;94603.88;5096196;28;20270;-67
2023/07/27 10:26:06;;;;;;;4.57;2.42;;;;;;;22.89;35.10;94611.47;5097215;28;20189;-65
2023/07/27 10:28:37;;;;;;;2.40;2.30;;;;;;;22.81;35.32;94608.06;5097187;28;20197;-65
2023/07/27 10:31:24;;;;;;;2.08;1.98;;;;;;;22.88;35.63;94617.53;5095998;28;20200;-64
2023/07/27 10:33:58;;;;;;;2.80;2.40;;;;;;;22.80;34.57;94606.47;5096650;28;20235;-64
2023/07/27 10:36:49;;;;;;;2.90;2.60;;;;;;;22.66;34.99;94611.69;5096083;28;20627;-65
2023/07/27 10:39:18;;;;;;;3.47;2.45;;;;;;;22.65;35.42;94599.66;5096308;28;20188;-65
2023/07/27 10:42:05;;;;;;;3.60;2.50;;;;;;;22.73;36.13;94600.25;5095916;28;20212;-65
2023/07/27 10:44:50;;;;;;;2.40;2.30;;;;;;;22.93;36.73;94605.75;5095196;28;20208;-65
2023/07/27 10:47:19;;;;;;;3.75;2.50;;;;;;;23.18;36.68;94593.81;5096535;28;20259;-65
2023/07/27 10:49:48;;;;;;;2.45;2.30;;;;;;;23.30;35.34;94599.44;5095478;28;20207;-65
2023/07/27 10:52:20;;;;;;;3.47;2.67;;;;;;;23.39;35.86;94589.56;5095579;28;20197;-65
2023/07/27 10:54:53;;;;;;;3.08;2.50;;;;;;;23.55;34.96;94603.53;5096541;28;20192;-65
2023/07/27 10:57:22;;;;;;;3.45;3.15;;;;;;;23.64;34.87;94597.22;5096577;28;20200;-65
2023/07/27 10:59:51;;;;;;;2.92;2.78;;;;;;;23.78;35.58;94583.56;5096753;28;20184;-65
2023/07/27 11:02:21;;;;;;;3.15;2.70;;;;;;;23.86;34.79;94580.53;5095581;28;20222;-65
2023/07/27 11:04:50;;;;;;;2.83;2.55;;;;;;;23.82;34.26;94579.81;5096644;28;20359;-65
2023/07/27 11:07:27;;;;;;;3.63;2.78;;;;;;;23.84;34.20;94588.63;5096307;28;20188;-65
2023/07/27 11:09:57;;;;;;;3.75;2.60;;;;;;;23.81;33.76;94572.63;5095423;28;20188;-66
2023/07/27 11:12:26;;;;;;;2.92;2.67;;;;;;;23.75;33.24;94567.56;5096335;28;20207;-65
2023/07/27 11:14:55;;;;;;;3.90;2.60;;;;;;;23.74;33.64;94584.88;5095459;28;20193;-65
2023/07/27 11:17:24;;;;;;;3.78;2.50;;;;;;;23.75;33.87;94572.41;5096205;28;20184;-65
2023/07/27 11:19:53;;;;;;;3.22;2.72;;;;;;;23.82;32.62;94574.19;5095299;28;20239;-65
2023/07/27 11:22:25;;;;;;;2.55;2.20;;;;;;;23.82;33.53;94569.38;5095428;28;20216;-65
2023/07/27 11:24:55;;;;;;;3.88;2.65;;;;;;;24.06;34.94;94561.31;5095135;28;20204;-65
2023/07/27 11:27:25;;;;;;;2.90;2.50;;;;;;;24.21;34.02;94556.78;5095172;28;20200;-65
2023/07/27 11:29:59;;;;;;;4.13;2.50;;;;;;;24.37;33.07;94572.00;5095226;28;20180;-65
2023/07/27 11:32:30;;;;;;;5.07;2.78;;;;;;;24.40;32.58;94568.28;5095999;28;20184;-65
2023/07/27 11:34:57;;;;;;;3.60;3.30;;;;;;;24.38;32.92;94557.44;5094992;28;20192;-65
2023/07/27 11:37:27;;;;;;;3.13;2.78;;;;;;;24.26;32.73;94558.25;5095046;28;20207;-65
2023/07/27 11:39:55;;;;;;;3.15;2.90;;;;;;;24.26;32.67;94563.91;5094641;28;20200;-65
2023/07/27 11:42:35;;;;;;;2.85;2.65;;;;;;;24.36;33.40;94567.56;5095805;28;20212;-64
2023/07/27 11:45:09;;;;;;;2.60;2.45;;;;;;;24.46;32.09;94584.16;5095736;28;20200;-65
2023/07/27 11:47:38;;;;;;;3.30;3.00;;;;;;;24.44;33.20;94586.66;5095691;28;20219;-65
2023/07/27 11:50:07;;;;;;;3.10;2.88;;;;;;;24.48;33.76;94570.41;5095476;28;20177;-65
2023/07/27 11:52:39;;;;;;;3.05;2.58;;;;;;;24.55;32.59;94568.56;5094699;28;20238;-65
2023/07/27 11:55:08;;;;;;;3.42;2.50;;;;;;;24.67;34.17;94565.72;5095616;28;20188;-65
2023/07/27 11:57:41;;;;;;;4.90;3.20;;;;;;;24.74;32.41;94571.09;5095649;28;20193;-65
2023/07/27 12:00:13;;;;;;;2.90;2.70;;;;;;;24.88;32.71;94585.94;5095629;28;20193;-65
2023/07/27 12:02:40;;;;;;;2.90;2.50;;;;;;;24.80;31.80;94576.97;5095562;28;20299;-64
2023/07/27 12:05:08;;;;;;;3.20;2.90;;;;;;;24.71;32.12;94565.59;5095538;28;20188;-65
2023/07/27 12:07:36;;;;;;;2.70;2.60;;;;;;;24.72;32.19;94569.97;5093339;28;20224;-64
2023/07/27 12:10:06;;;;;;;3.03;2.42;;;;;;;24.63;31.39;94570.69;5095167;28;20192;-64
2023/07/27 12:12:34;;;;;;;2.80;2.60;;;;;;;24.77;32.17;94565.81;5095411;28;20192;-65
2023/07/27 12:15:24;;;;;;;2.83;2.60;;;;;;;24.89;31.60;94570.59;5094428;28;20204;-65
2023/07/27 12:17:59;;;;;;;4.07;2.95;;;;;;;24.84;30.46;94577.63;5094664;28;20196;-64
2023/07/27 12:20:28;;;;;;;2.90;2.70;;;;;;;24.77;30.88;94594.00;5094455;28;20231;-65
2023/07/27 12:23:00;;;;;;;2.88;2.67;;;;;;;24.74;31.12;94570.31;5095257;28;20208;-65